Indianapolis/Eagle Creek Airpark, Indiana
Current Conditions -  °F | °C
As of 4:53 PM on Sunday 23 Nov 2014 (Local Time) from KEYE Reporting Station
Light Rain Light Rain  
Wind Chill: 52°   Ceiling: 700
Heat Index: 52°   Visibility: 6mi
Dew Point: 52°   Wind: 10mph
Humidity: 100%   Direction: 140°SE
Pressure: 29.48"   Gusts: 20mph
Location:  39.83°N, 86.3°W
Report Text: KEYE 232153Z AUTO 14009G17KT 6SM -RA BR OVC007 11/11 A2948 RMK AO2 CIG 005V010 SLP981 P0016 T01110111
Loading
Personal Weather Stations






























Interactive Weather Map New forecast layout! Learn more

10-Day Weather Forecast

Advertisements
Track Severe Weather on mobile